Lancaster, Iowa
Current Conditions -  °F | °C
As of 9:55 AM on Friday 31 Oct 2014 (Local Time) from KOOA Reporting Station
Clear Clear  
Wind Chill: 21°   Ceiling: Unl
Heat Index: 33°   Visibility: 10mi
Dew Point: 20°   Wind: 21mph
Humidity: 59%   Direction: 350°N
Pressure: 30.44"   Gusts: 28mph
Location:  41.331°N, 92.1821°W
Report Text: KOOA 311455Z AUTO 35018G24KT 10SM CLR 00/M07 A3044 RMK AO2 T00041067
Loading
Personal Weather Stations






























Interactive Weather Map
Tropical Storm Tracking
New forecast layout! Learn more

10-Day Weather Forecast

Advertisements
Track Severe Weather on mobile